createdAt,value
2022-11-17T00:03:27.021Z,4.60
2022-11-17T00:08:28.826Z,4.60
2022-11-17T00:13:49.268Z,4.60
2022-11-17T00:19:09.949Z,4.70
2022-11-17T00:24:16.426Z,4.70
2022-11-17T00:29:18.185Z,4.50
2022-11-17T00:34:22.614Z,4.50
2022-11-17T00:39:24.929Z,4.50
2022-11-17T00:44:26.977Z,4.40
2022-11-17T00:49:29.128Z,4.50
2022-11-17T00:54:30.899Z,4.40
2022-11-17T00:59:32.673Z,4.40
2022-11-17T01:04:34.422Z,4.50
2022-11-17T01:09:36.165Z,4.50
2022-11-17T01:14:37.937Z,4.40
2022-11-17T01:19:39.747Z,4.40
2022-11-17T01:24:41.839Z,4.40
2022-11-17T01:29:43.592Z,4.50
2022-11-17T01:34:45.358Z,4.40
2022-11-17T01:39:48.822Z,4.30
2022-11-17T01:45:01.244Z,4.30
2022-11-17T01:50:12.063Z,4.30
2022-11-17T01:55:14.017Z,4.30
2022-11-17T02:00:16.709Z,4.10
2022-11-17T02:05:41.914Z,4.30
2022-11-17T02:10:50.265Z,4.30
2022-11-17T02:15:53.335Z,4.30
2022-11-17T02:21:13.947Z,4.30
2022-11-17T02:26:42.313Z,4.20
2022-11-17T02:32:04.126Z,4.20
2022-11-17T02:37:25.780Z,4.10
2022-11-17T02:42:54.800Z,4.20
2022-11-17T02:47:59.748Z,4.10
2022-11-17T02:53:02.103Z,4.10
2022-11-17T02:58:03.889Z,4.20
2022-11-17T03:03:32.889Z,4.20
2022-11-17T03:09:00.017Z,4.20
2022-11-17T03:14:26.674Z,4.10
2022-11-17T03:19:35.540Z,4.00
2022-11-17T03:24:39.825Z,4.10
2022-11-17T03:29:46.133Z,4.30
2022-11-17T03:34:55.877Z,4.10
2022-11-17T03:40:12.194Z,4.10
2022-11-17T03:45:35.949Z,4.10
2022-11-17T03:50:43.773Z,4.10
2022-11-17T03:55:57.849Z,4.30
2022-11-17T04:01:03.322Z,4.40
2022-11-17T04:06:05.234Z,4.40
2022-11-17T04:11:25.721Z,4.20
2022-11-17T04:16:27.558Z,4.30
2022-11-17T04:21:29.382Z,4.30
2022-11-17T04:26:49.738Z,4.20
2022-11-17T04:31:51.891Z,4.20
2022-11-17T04:36:53.865Z,4.30
2022-11-17T04:42:02.114Z,4.20
2022-11-17T04:47:04.363Z,4.20
2022-11-17T04:52:06.166Z,4.40
2022-11-17T04:57:08.085Z,4.30
2022-11-17T05:02:09.884Z,4.20
2022-11-17T05:07:11.790Z,4.30
2022-11-17T05:12:32.152Z,4.50
2022-11-17T05:17:33.878Z,4.30
2022-11-17T05:22:54.193Z,4.40
2022-11-17T05:27:56.113Z,4.50
2022-11-17T05:32:58.172Z,4.30
2022-11-17T05:37:59.947Z,4.30
2022-11-17T05:43:01.686Z,4.30
2022-11-17T05:48:03.627Z,4.30
2022-11-17T05:53:05.417Z,4.30
2022-11-17T05:58:21.244Z,4.30
2022-11-17T06:03:29.191Z,4.40
2022-11-17T06:08:31.261Z,4.50
2022-11-17T06:13:33.487Z,4.50
2022-11-17T06:18:41.432Z,4.60
2022-11-17T06:23:44.746Z,4.60
2022-11-17T06:28:49.284Z,4.60
2022-11-17T06:33:51.184Z,4.60
2022-11-17T06:38:52.953Z,4.80
2022-11-17T06:43:54.904Z,4.80
2022-11-17T06:48:56.677Z,4.80
2022-11-17T06:53:58.513Z,4.90
2022-11-17T06:59:00.278Z,4.80
2022-11-17T07:04:02.438Z,4.90
2022-11-17T07:09:05.342Z,4.90
2022-11-17T07:14:07.120Z,4.80
2022-11-17T07:19:09.890Z,5.00
2022-11-17T07:24:11.650Z,5.00
2022-11-17T07:29:13.733Z,4.90
2022-11-17T07:34:15.551Z,5.00
2022-11-17T07:39:21.428Z,5.10
2022-11-17T07:44:23.721Z,5.20
2022-11-17T07:49:27.305Z,5.30
2022-11-17T07:54:29.141Z,5.40
2022-11-17T07:59:30.918Z,5.40
2022-11-17T08:04:32.725Z,5.40
2022-11-17T08:09:34.467Z,5.30
2022-11-17T08:14:36.255Z,5.40
2022-11-17T08:19:38.029Z,5.50
2022-11-17T08:24:39.861Z,5.50
2022-11-17T08:29:41.703Z,5.60
2022-11-17T08:34:43.444Z,5.70
2022-11-17T08:39:45.214Z,5.50
2022-11-17T08:44:47.922Z,5.30
2022-11-17T08:49:49.797Z,5.60
2022-11-17T08:54:52.426Z,5.60
2022-11-17T08:59:54.283Z,5.80
2022-11-17T09:04:56.054Z,5.70
2022-11-17T09:09:58.142Z,5.60
2022-11-17T09:14:59.961Z,5.70
2022-11-17T09:20:02.223Z,5.80
2022-11-17T09:25:07.478Z,5.60
2022-11-17T09:30:12.572Z,5.60
2022-11-17T09:35:14.829Z,5.70
2022-11-17T09:40:19.739Z,5.80
2022-11-17T09:45:34.977Z,5.80
2022-11-17T09:50:38.596Z,5.70
2022-11-17T09:55:50.332Z,5.80
2022-11-17T10:00:53.762Z,5.90
2022-11-17T10:05:55.962Z,5.80
2022-11-17T10:10:57.872Z,5.90
2022-11-17T10:16:11.999Z,5.90
2022-11-17T10:21:13.751Z,6.00
2022-11-17T10:26:16.113Z,6.00
2022-11-17T10:31:19.387Z,6.00
2022-11-17T10:36:23.117Z,6.00
2022-11-17T10:41:40.570Z,5.90
2022-11-17T10:47:08.537Z,5.90
2022-11-17T10:52:18.382Z,6.10
2022-11-17T10:57:23.940Z,5.90
2022-11-17T11:02:38.208Z,6.00
2022-11-17T11:07:40.985Z,6.10
2022-11-17T11:13:20.502Z,6.00
2022-11-17T11:18:22.566Z,5.90
2022-11-17T11:24:03.126Z,5.90
2022-11-17T11:29:09.629Z,5.80
2022-11-17T11:34:15.500Z,6.10
2022-11-17T11:39:55.366Z,6.10
2022-11-17T11:45:24.462Z,6.10
2022-11-17T11:50:30.725Z,6.00
2022-11-17T11:55:36.545Z,6.10
2022-11-17T12:00:41.513Z,6.20
2022-11-17T12:06:21.291Z,6.10
2022-11-17T12:11:42.072Z,6.20
2022-11-17T12:16:44.902Z,6.20
2022-11-17T12:21:54.410Z,6.30
2022-11-17T12:27:31.126Z,6.20
2022-11-17T12:32:44.966Z,6.10
2022-11-17T12:37:46.778Z,6.20
2022-11-17T12:43:15.066Z,6.20
2022-11-17T12:48:32.925Z,6.10
2022-11-17T12:53:49.218Z,6.00
2022-11-17T12:59:22.866Z,6.10
2022-11-17T13:04:35.116Z,6.10
2022-11-17T13:09:37.214Z,6.10
2022-11-17T13:14:54.870Z,6.10
2022-11-17T13:20:25.456Z,6.20
2022-11-17T13:25:27.968Z,5.90
2022-11-17T13:30:31.420Z,5.90
2022-11-17T13:35:35.834Z,6.00
2022-11-17T13:40:39.450Z,6.10
2022-11-17T13:45:43.273Z,5.90
2022-11-17T13:50:45.354Z,5.80
2022-11-17T13:55:47.471Z,5.90
2022-11-17T14:00:57.939Z,5.70
2022-11-17T14:05:59.757Z,5.80
2022-11-17T14:11:26.981Z,5.60
2022-11-17T14:16:38.412Z,5.80
2022-11-17T14:22:00.208Z,5.60
2022-11-17T14:27:02.546Z,5.80
2022-11-17T14:32:04.368Z,5.60
2022-11-17T14:37:10.434Z,5.50
2022-11-17T14:42:14.501Z,5.40
2022-11-17T14:47:16.177Z,5.50
2022-11-17T14:52:17.918Z,5.50
2022-11-17T14:57:19.646Z,5.30
2022-11-17T15:02:21.376Z,5.40
2022-11-17T15:07:23.956Z,5.20
2022-11-17T15:12:26.479Z,5.20
2022-11-17T15:17:28.715Z,5.20
2022-11-17T15:22:30.444Z,5.20
2022-11-17T15:27:32.261Z,5.10
2022-11-17T15:32:34.006Z,5.20
2022-11-17T15:37:35.794Z,5.30
2022-11-17T15:42:37.627Z,5.30
2022-11-17T15:47:39.650Z,5.40
2022-11-17T15:53:02.988Z,5.20
2022-11-17T15:58:03.115Z,5.30
2022-11-17T16:03:05.886Z,5.30
2022-11-17T16:08:07.680Z,5.40
2022-11-17T16:13:09.462Z,5.30
2022-11-17T16:18:11.233Z,5.20
2022-11-17T16:23:14.234Z,5.20
2022-11-17T16:28:17.355Z,5.20
2022-11-17T16:33:19.106Z,5.10
2022-11-17T16:38:20.850Z,5.10
2022-11-17T16:43:22.516Z,4.90
2022-11-17T16:48:24.350Z,4.90
2022-11-17T16:53:26.103Z,4.90
2022-11-17T16:58:27.913Z,4.90
2022-11-17T17:03:29.659Z,4.90
2022-11-17T17:08:31.401Z,4.80
2022-11-17T17:13:34.183Z,4.90
2022-11-17T17:18:36.256Z,4.70
2022-11-17T17:23:38.025Z,4.70
2022-11-17T17:28:40.920Z,4.90
2022-11-17T17:33:43.186Z,4.90
2022-11-17T17:38:47.812Z,4.90
2022-11-17T17:44:00.185Z,4.70
2022-11-17T17:49:02.395Z,4.70
2022-11-17T17:54:04.464Z,4.60
2022-11-17T17:59:06.293Z,4.60
2022-11-17T18:04:12.638Z,4.60
2022-11-17T18:09:20.468Z,4.50
2022-11-17T18:14:24.488Z,4.50
2022-11-17T18:19:32.561Z,4.60
2022-11-17T18:24:34.906Z,4.60
2022-11-17T18:29:36.638Z,4.40
2022-11-17T18:34:41.728Z,4.40
2022-11-17T18:39:43.439Z,4.30
2022-11-17T18:44:45.246Z,4.30
2022-11-17T18:49:46.964Z,4.30
2022-11-17T18:54:48.688Z,4.30
2022-11-17T18:59:50.412Z,4.30
2022-11-17T19:04:52.103Z,4.20
2022-11-17T19:09:53.999Z,4.20
2022-11-17T19:14:55.716Z,4.10
2022-11-17T19:19:57.480Z,4.10
2022-11-17T19:24:59.234Z,3.90
2022-11-17T19:30:00.917Z,3.80
2022-11-17T19:35:13.643Z,3.80
2022-11-17T19:40:17.724Z,3.70
2022-11-17T19:45:20.891Z,3.60
2022-11-17T19:50:22.661Z,3.60
2022-11-17T19:55:24.427Z,3.50
2022-11-17T20:00:26.227Z,3.50
2022-11-17T20:05:27.934Z,3.40
2022-11-17T20:10:29.610Z,3.50
2022-11-17T20:15:35.110Z,3.30
2022-11-17T20:20:37.443Z,3.40
2022-11-17T20:25:39.370Z,3.50
2022-11-17T20:30:41.357Z,3.50
2022-11-17T20:35:43.096Z,3.40
2022-11-17T20:40:45.009Z,3.40
2022-11-17T20:45:51.106Z,3.50
2022-11-17T20:51:08.733Z,3.40
2022-11-17T20:56:13.538Z,3.30
2022-11-17T21:01:18.444Z,3.20
2022-11-17T21:06:25.546Z,3.30
2022-11-17T21:11:48.720Z,3.30
2022-11-17T21:16:50.624Z,3.20
2022-11-17T21:21:53.544Z,3.20
2022-11-17T21:26:55.392Z,3.10
2022-11-17T21:31:57.264Z,3.10
2022-11-17T21:36:59.162Z,3.00
2022-11-17T21:42:01.102Z,3.00
2022-11-17T21:47:02.844Z,3.10
2022-11-17T21:52:04.812Z,3.10
2022-11-17T21:57:06.767Z,3.00
2022-11-17T22:02:10.024Z,3.10
2022-11-17T22:07:11.894Z,3.10
2022-11-17T22:12:13.769Z,3.10
2022-11-17T22:17:15.857Z,3.00
2022-11-17T22:22:17.705Z,3.10
2022-11-17T22:27:22.035Z,3.20
2022-11-17T22:32:24.070Z,3.00
2022-11-17T22:37:27.159Z,3.00
2022-11-17T22:42:28.959Z,3.10
2022-11-17T22:47:31.559Z,2.90
2022-11-17T22:52:33.422Z,3.00
2022-11-17T22:57:35.128Z,2.80
2022-11-17T23:02:36.900Z,2.70
2022-11-17T23:07:38.838Z,2.80
2022-11-17T23:12:40.956Z,2.70
2022-11-17T23:17:42.796Z,2.70
2022-11-17T23:22:44.957Z,2.70
2022-11-17T23:27:46.804Z,2.70
2022-11-17T23:32:48.615Z,2.80
2022-11-17T23:37:50.298Z,2.60
2022-11-17T23:42:54.824Z,2.60
2022-11-17T23:47:56.504Z,2.60
2022-11-17T23:52:58.277Z,2.50
2022-11-17T23:57:59.953Z,2.50
